Time;durP1;ratioP1;P1;durP2;ratioP2;P2;SDS_P1;SDS_P2;PMS_P1;PMS_P2;Temp;Humidity;BMP_temperature;BMP_pressure;BME280_temperature;BME280_humidity;BME280_pressure;Samples;Min_cycle;Max_cycle;Signal;HPM_P1;HPM_P2
2024/02/23 15:57:48;;;;;;;;;;;;;;;9.04;51.04;96223.44;5080122;27;19921;-58
2024/02/23 16:00:37;;;;;;;;;;;;;;;8.75;51.11;96225.31;5085799;28;19924;-58
2024/02/23 16:03:25;;;;;;;;;;;;;;;8.81;51.01;96232.06;5071856;28;19928;-59
2024/02/23 16:06:13;;;;;;;;;;;;;;;8.75;50.99;96229.94;5081642;28;20024;-58
2024/02/23 16:09:02;;;;;;;;;;;;;;;8.87;51.03;96217.16;5077207;28;19928;-58
2024/02/23 16:11:50;;;;;;;;;;;;;;;8.84;51.08;96211.63;5094037;28;19931;-58
2024/02/23 16:14:40;;;;;;;;;;;;;;;8.96;51.51;96222.44;5121325;27;19977;-58
2024/02/23 16:17:28;;;;;;;;;;;;;;;8.87;51.47;96230.69;5117947;27;19928;-59
2024/02/23 16:20:16;;;;;;;;;;;;;;;9.07;50.79;96220.84;5119034;28;19923;-59
2024/02/23 16:23:04;;;;;;;;;;;;;;;8.77;51.79;96223.03;5117953;27;20393;-59
2024/02/23 16:25:52;;;;;;;;;;;;;;;9.06;51.34;96213.84;5118242;27;20410;-59
2024/02/23 16:28:40;;;;;;;;;;;;;;;9.01;51.79;96222.22;5108800;27;20312;-59
2024/02/23 16:31:30;;;;;;;;;;;;;;;8.95;51.80;96228.19;5110714;27;19928;-59
2024/02/23 16:34:18;;;;;;;;;;;;;;;8.98;52.64;96230.22;5114819;27;19927;-59
2024/02/23 16:37:06;;;;;;;;;;;;;;;9.17;51.88;96228.50;5115959;27;19924;-58
2024/02/23 16:39:54;;;;;;;;;;;;;;;9.39;51.98;96229.91;5109755;28;19935;-59
2024/02/23 16:42:42;;;;;;;;;;;;;;;9.49;50.59;96231.34;5111209;27;20509;-59
2024/02/23 16:45:31;;;;;;;;;;;;;;;9.57;50.92;96229.59;5121575;27;20157;-58
2024/02/23 16:48:21;;;;;;;;;;;;;;;9.57;50.13;96216.03;5118464;28;19924;-59
2024/02/23 16:51:09;;;;;;;;;;;;;;;9.41;50.98;96214.06;5121869;28;20003;-58
2024/02/23 16:53:57;;;;;;;;;;;;;;;9.45;50.50;96214.97;5113107;27;20243;-58
2024/02/23 16:56:45;;;;;;;;;;;;;;;9.41;50.62;96224.91;5120981;27;20339;-58
2024/02/23 16:59:33;;;;;;;;;;;;;;;9.54;50.65;96231.09;5124719;27;19928;-59
2024/02/23 17:02:23;;;;;;;;;;;;;;;9.38;49.96;96211.28;5112152;27;19932;-59
2024/02/23 17:05:13;;;;;;;;;;;;;;;9.42;50.73;96209.44;5122236;27;20412;-58
2024/02/23 17:08:01;;;;;;;;;;;;;;;9.31;50.85;96217.25;5109099;27;19923;-58
2024/02/23 17:10:49;;;;;;;;;;;;;;;9.24;51.13;96221.69;5110388;27;19924;-59
2024/02/23 17:13:37;;;;;;;;;;;;;;;9.13;51.69;96227.59;5108768;27;19934;-59
2024/02/23 17:16:27;;;;;;;;;;;;;;;9.08;51.68;96225.13;5107856;27;20398;-58
2024/02/23 17:19:15;;;;;;;;;;;;;;;9.19;50.91;96225.44;5091748;28;19931;-59
2024/02/23 17:22:05;;;;;;;;;;;;;;;8.95;51.34;96242.53;5103349;27;19980;-59
2024/02/23 17:24:53;;;;;;;;;;;;;;;9.08;51.46;96256.84;5109227;27;20403;-59
2024/02/23 17:27:42;;;;;;;;;;;;;;;9.05;51.73;96257.53;5107315;27;19931;-59
2024/02/23 17:30:30;;;;;;;;;;;;;;;8.70;52.30;96258.03;5109295;27;19930;-61
2024/02/23 17:33:19;;;;;;;;;;;;;;;9.01;52.05;96243.09;5108785;27;19947;-58
2024/02/23 17:36:07;;;;;;;;;;;;;;;9.16;51.95;96242.38;5102090;27;19928;-60
2024/02/23 17:38:56;;;;;;;;;;;;;;;9.17;50.57;96230.41;5096571;28;20294;-59
2024/02/23 17:41:44;;;;;;;;;;;;;;;9.15;51.98;96219.91;5101561;27;20416;-59
2024/02/23 17:44:33;;;;;;;;;;;;;;;9.16;51.86;96207.16;5103991;27;19951;-59
2024/02/23 17:47:21;;;;;;;;;;;;;;;9.25;51.44;96202.38;5101481;27;19935;-59
2024/02/23 17:50:10;;;;;;;;;;;;;;;9.30;51.22;96209.47;5101789;27;19928;-58
2024/02/23 17:52:59;;;;;;;;;;;;;;;9.22;51.12;96235.59;5096010;27;20382;-58
2024/02/23 17:55:49;;;;;;;;;;;;;;;9.15;51.56;96243.50;5106788;27;20027;-60
2024/02/23 17:58:37;;;;;;;;;;;;;;;8.93;52.34;96237.44;5107469;27;19924;-58
2024/02/23 18:01:25;;;;;;;;;;;;;;;9.00;51.67;96245.03;5098710;28;19997;-58
2024/02/23 18:04:13;;;;;;;;;;;;;;;8.96;52.06;96254.16;5110091;27;19944;-58
2024/02/23 18:07:04;;;;;;;;;;;;;;;9.03;52.17;96248.94;5099981;27;20100;-58
2024/02/23 18:09:52;;;;;;;;;;;;;;;9.05;51.50;96244.75;5106108;27;19924;-58
2024/02/23 18:12:42;;;;;;;;;;;;;;;8.92;52.21;96248.63;5118547;27;19936;-58
2024/02/23 18:15:30;;;;;;;;;;;;;;;8.80;53.00;96260.28;5095772;28;20015;-57
2024/02/23 18:18:18;;;;;;;;;;;;;;;8.80;52.66;96252.16;5097685;27;20396;-57
2024/02/23 18:21:10;;;;;;;;;;;;;;;8.79;52.61;96247.06;5104019;27;19931;-58
2024/02/23 18:24:00;;;;;;;;;;;;;;;8.75;52.92;96238.06;5095944;27;19947;-57
2024/02/23 18:26:49;;;;;;;;;;;;;;;8.68;53.46;96232.41;5104935;28;19927;-61
2024/02/23 18:29:38;;;;;;;;;;;;;;;8.73;52.81;96229.47;5107329;27;19923;-58
2024/02/23 18:32:27;;;;;;;;;;;;;;;8.60;53.55;96221.38;5099020;27;20291;-58
2024/02/23 18:35:15;;;;;;;;;;;;;;;8.51;54.03;96222.59;5094034;27;19932;-60
2024/02/23 18:38:03;;;;;;;;;;;;;;;8.58;53.80;96217.44;5102785;27;19969;-58
2024/02/23 18:40:51;;;;;;;;;;;;;;;8.54;54.12;96227.34;5115736;27;19932;-58
2024/02/23 18:43:40;;;;;;;;;;;;;;;8.51;53.75;96228.00;5104350;27;19960;-58
2024/02/23 18:46:29;;;;;;;;;;;;;;;8.54;54.18;96240.88;5107412;27;20017;-58
2024/02/23 18:49:17;;;;;;;;;;;;;;;8.50;53.90;96240.75;5107671;27;20365;-58
2024/02/23 18:52:07;;;;;;;;;;;;;;;8.55;54.46;96237.03;5112817;27;19928;-58
2024/02/23 18:54:57;;;;;;;;;;;;;;;8.55;54.19;96239.75;5108820;27;20395;-58
2024/02/23 18:57:45;;;;;;;;;;;;;;;8.38;54.57;96241.53;5101198;27;19930;-58
2024/02/23 19:00:33;;;;;;;;;;;;;;;8.40;54.73;96239.28;5104192;27;19924;-61
2024/02/23 19:03:22;;;;;;;;;;;;;;;8.25;54.56;96242.63;5102877;27;19930;-57
2024/02/23 19:06:11;;;;;;;;;;;;;;;8.23;54.82;96234.06;5084066;28;19930;-57
2024/02/23 19:09:00;;;;;;;;;;;;;;;8.17;55.79;96243.53;5113074;27;20415;-57
2024/02/23 19:11:47;;;;;;;;;;;;;;;7.90;56.74;96236.03;5105536;27;19931;-58
2024/02/23 19:14:36;;;;;;;;;;;;;;;8.01;56.46;96235.28;5101952;27;20043;-61
2024/02/23 19:17:24;;;;;;;;;;;;;;;7.99;56.08;96224.00;5102202;28;20148;-57
2024/02/23 19:20:13;;;;;;;;;;;;;;;7.92;57.02;96212.94;5095647;28;19924;-58
2024/02/23 19:23:03;;;;;;;;;;;;;;;8.08;56.51;96221.97;5093707;28;19931;-58
2024/02/23 19:25:51;;;;;;;;;;;;;;;7.99;56.77;96242.94;5094101;28;20292;-58
2024/02/23 19:28:39;;;;;;;;;;;;;;;8.14;56.60;96252.31;5098609;28;20349;-58
2024/02/23 19:31:30;;;;;;;;;;;;;;;7.97;56.55;96241.69;5090616;28;19943;-57
2024/02/23 19:34:18;;;;;;;;;;;;;;;8.04;57.07;96247.31;5108098;28;20305;-57
2024/02/23 19:37:08;;;;;;;;;;;;;;;8.07;56.28;96244.75;5101597;28;19924;-59
2024/02/23 19:39:56;;;;;;;;;;;;;;;7.85;56.96;96251.34;5097824;28;20341;-57
2024/02/23 19:42:44;;;;;;;;;;;;;;;7.79;57.15;96255.38;5102191;28;20381;-58
2024/02/23 19:45:32;;;;;;;;;;;;;;;7.95;56.80;96246.66;5108411;28;19924;-58
2024/02/23 19:48:20;;;;;;;;;;;;;;;8.04;56.28;96252.72;5109427;27;20032;-58
2024/02/23 19:51:08;;;;;;;;;;;;;;;7.93;56.43;96248.88;5114813;27;19923;-58
2024/02/23 19:53:58;;;;;;;;;;;;;;;7.86;56.67;96247.50;5101993;27;20394;-58
2024/02/23 19:56:46;;;;;;;;;;;;;;;7.67;57.32;96249.94;5095621;28;20057;-59
2024/02/23 19:59:37;;;;;;;;;;;;;;;7.70;57.56;96243.88;5104081;28;20559;-58
2024/02/23 20:02:25;;;;;;;;;;;;;;;7.76;57.33;96249.84;5104872;28;19928;-58
2024/02/23 20:05:13;;;;;;;;;;;;;;;7.66;57.72;96239.44;5097205;28;20020;-58
2024/02/23 20:08:01;;;;;;;;;;;;;;;7.73;57.24;96242.41;5102618;28;20296;-59
2024/02/23 20:10:51;;;;;;;;;;;;;;;7.60;57.41;96239.66;5105330;28;20389;-58
2024/02/23 20:13:40;;;;;;;;;;;;;;;7.75;57.36;96240.94;5099364;28;19932;-59
2024/02/23 20:16:28;;;;;;;;;;;;;;;7.53;56.90;96238.63;5098560;28;20000;-58
2024/02/23 20:19:16;;;;;;;;;;;;;;;7.50;57.68;96244.69;5103033;28;20019;-58
2024/02/23 20:22:04;;;;;;;;;;;;;;;7.60;57.10;96242.34;5096806;28;20065;-59
2024/02/23 20:24:53;;;;;;;;;;;;;;;7.55;57.20;96247.97;5093045;28;20269;-59
2024/02/23 20:27:42;;;;;;;;;;;;;;;7.64;57.19;96256.00;5102953;28;20333;-59
2024/02/23 20:30:30;;;;;;;;;;;;;;;7.66;57.31;96258.38;5104684;28;19923;-58
2024/02/23 20:33:18;;;;;;;;;;;;;;;7.65;56.89;96260.28;5098252;28;20016;-58
2024/02/23 20:36:07;;;;;;;;;;;;;;;7.65;57.18;96254.88;5101576;28;20006;-59
2024/02/23 20:38:55;;;;;;;;;;;;;;;7.62;56.98;96258.25;5108201;28;20014;-60
2024/02/23 20:41:43;;;;;;;;;;;;;;;7.30;57.24;96262.50;5112725;28;19931;-58
2024/02/23 20:44:34;;;;;;;;;;;;;;;7.37;57.44;96262.75;5106834;27;19924;-59
2024/02/23 20:47:23;;;;;;;;;;;;;;;7.28;57.52;96259.34;5118926;27;19928;-59
2024/02/23 20:50:11;;;;;;;;;;;;;;;7.27;58.15;96252.34;5111291;27;20011;-58
2024/02/23 20:52:59;;;;;;;;;;;;;;;7.42;57.59;96265.25;5112422;27;19994;-58
2024/02/23 20:55:47;;;;;;;;;;;;;;;7.43;57.25;96260.66;5115948;27;19930;-59
2024/02/23 20:58:38;;;;;;;;;;;;;;;7.46;56.58;96260.00;5119107;27;19973;-59
2024/02/23 21:01:27;;;;;;;;;;;;;;;7.39;56.88;96254.31;5114106;27;19930;-61
2024/02/23 21:04:15;;;;;;;;;;;;;;;7.39;56.61;96254.31;5112581;27;20034;-59
2024/02/23 21:07:06;;;;;;;;;;;;;;;7.33;56.68;96261.84;5116533;27;20428;-58
2024/02/23 21:09:55;;;;;;;;;;;;;;;7.35;56.62;96263.09;5112181;27;19927;-58
2024/02/23 21:12:43;;;;;;;;;;;;;;;7.16;56.83;96246.56;5105007;27;19928;-58
2024/02/23 21:15:31;;;;;;;;;;;;;;;7.27;56.88;96242.34;5099678;28;20389;-59
2024/02/23 21:18:20;;;;;;;;;;;;;;;7.30;56.71;96236.28;5108586;27;19931;-60
2024/02/23 21:21:08;;;;;;;;;;;;;;;7.26;56.96;96234.56;5113642;27;19974;-59
2024/02/23 21:23:56;;;;;;;;;;;;;;;7.24;56.90;96234.88;5105944;27;19924;-58
2024/02/23 21:26:46;;;;;;;;;;;;;;;7.30;56.66;96233.59;5104922;27;21313;-61
2024/02/23 21:29:34;;;;;;;;;;;;;;;7.14;56.70;96235.31;5099311;28;19924;-61
2024/02/23 21:32:24;;;;;;;;;;;;;;;7.11;56.43;96241.34;5105261;28;19998;-58
2024/02/23 21:35:13;;;;;;;;;;;;;;;7.15;56.45;96234.19;5098308;27;20029;-60
2024/02/23 21:38:01;;;;;;;;;;;;;;;7.03;57.12;96242.19;5112275;27;20073;-59
2024/02/23 21:40:49;;;;;;;;;;;;;;;6.92;57.32;96246.41;5110295;27;19924;-59
2024/02/23 21:43:38;;;;;;;;;;;;;;;7.06;57.17;96252.34;5098326;27;19931;-59
2024/02/23 21:46:26;;;;;;;;;;;;;;;7.07;57.16;96243.91;5108520;27;19924;-58
2024/02/23 21:49:14;;;;;;;;;;;;;;;7.14;56.19;96239.88;5111377;27;19924;-59
2024/02/23 21:52:05;;;;;;;;;;;;;;;7.03;56.70;96245.72;5109376;27;19935;-58
2024/02/23 21:54:53;;;;;;;;;;;;;;;7.03;56.94;96242.19;5106204;27;19932;-58
2024/02/23 21:57:41;;;;;;;;;;;;;;;7.08;56.66;96239.28;5116968;27;20285;-58
2024/02/23 22:00:32;;;;;;;;;;;;;;;6.99;57.38;96235.88;5113895;27;20025;-58
2024/02/23 22:03:20;;;;;;;;;;;;;;;6.92;57.01;96238.31;5110114;27;19923;-58
2024/02/23 22:06:08;;;;;;;;;;;;;;;6.86;57.31;96239.63;5113994;27;19927;-58
2024/02/23 22:08:58;;;;;;;;;;;;;;;6.86;56.81;96242.31;5097109;27;19924;-59
2024/02/23 22:11:46;;;;;;;;;;;;;;;6.61;57.88;96247.56;5104134;27;19925;-58
2024/02/23 22:14:34;;;;;;;;;;;;;;;6.52;58.53;96254.91;5095017;27;19931;-59
2024/02/23 22:17:22;;;;;;;;;;;;;;;6.49;58.17;96255.53;5104145;27;19924;-58
2024/02/23 22:20:10;;;;;;;;;;;;;;;6.35;58.60;96249.59;5112638;27;19935;-58
2024/02/23 22:22:59;;;;;;;;;;;;;;;6.38;58.44;96254.31;5107330;27;19924;-58
2024/02/23 22:25:49;;;;;;;;;;;;;;;6.59;58.33;96254.38;5098581;27;19985;-58
2024/02/23 22:28:37;;;;;;;;;;;;;;;6.58;58.19;96261.69;5100250;27;19963;-58
2024/02/23 22:31:25;;;;;;;;;;;;;;;6.68;58.12;96252.44;5103679;27;19928;-58
2024/02/23 22:34:13;;;;;;;;;;;;;;;6.62;57.80;96254.53;5110958;27;20408;-58
2024/02/23 22:37:01;;;;;;;;;;;;;;;6.68;57.52;96247.84;5102821;27;19924;-59
2024/02/23 22:39:49;;;;;;;;;;;;;;;6.50;57.82;96249.06;5111375;27;20369;-58
2024/02/23 22:42:38;;;;;;;;;;;;;;;6.44;58.46;96250.31;5094226;28;19924;-58
2024/02/23 22:45:27;;;;;;;;;;;;;;;6.52;58.29;96236.03;5098002;28;19935;-58
2024/02/23 22:48:15;;;;;;;;;;;;;;;6.49;58.07;96234.75;5105096;27;19923;-58
2024/02/23 22:51:03;;;;;;;;;;;;;;;6.42;58.38;96229.09;5113081;27;19935;-57
2024/02/23 22:53:51;;;;;;;;;;;;;;;6.33;58.68;96238.31;5105692;28;19924;-58
2024/02/23 22:56:39;;;;;;;;;;;;;;;6.42;59.29;96228.28;5109488;27;20261;-58
2024/02/23 22:59:29;;;;;;;;;;;;;;;6.45;58.91;96222.25;5100411;27;20407;-58
2024/02/23 23:02:17;;;;;;;;;;;;;;;6.35;58.67;96228.03;5097232;27;19931;-58
2024/02/23 23:05:06;;;;;;;;;;;;;;;6.39;58.68;96221.66;5107592;27;19928;-58
2024/02/23 23:07:54;;;;;;;;;;;;;;;6.45;58.87;96238.44;5108517;27;19935;-58
2024/02/23 23:10:42;;;;;;;;;;;;;;;6.47;58.17;96230.81;5110375;27;19923;-57
2024/02/23 23:13:30;;;;;;;;;;;;;;;6.47;58.46;96236.19;5102101;27;19924;-58
2024/02/23 23:16:20;;;;;;;;;;;;;;;6.46;58.47;96240.03;5097118;27;19924;-57
2024/02/23 23:19:08;;;;;;;;;;;;;;;6.46;58.23;96242.72;5101858;27;19923;-57
2024/02/23 23:21:56;;;;;;;;;;;;;;;6.28;59.09;96236.59;5092820;28;20410;-58
2024/02/23 23:24:44;;;;;;;;;;;;;;;6.31;58.49;96238.66;5110125;27;20401;-58
2024/02/23 23:27:32;;;;;;;;;;;;;;;6.30;59.06;96243.25;5096632;27;19930;-61
2024/02/23 23:30:21;;;;;;;;;;;;;;;6.28;59.05;96247.38;5084348;27;19932;-59
2024/02/23 23:33:10;;;;;;;;;;;;;;;6.23;59.05;96237.59;5097950;27;19924;-58
2024/02/23 23:35:59;;;;;;;;;;;;;;;6.09;58.99;96242.41;5098132;28;19924;-60
2024/02/23 23:38:47;;;;;;;;;;;;;;;5.89;59.07;96243.06;5104832;27;19923;-61
2024/02/23 23:41:35;;;;;;;;;;;;;;;5.94;59.17;96234.84;5110235;27;19943;-60
2024/02/23 23:44:24;;;;;;;;;;;;;;;5.80;59.64;96240.38;5106337;27;19927;-60
2024/02/23 23:47:12;;;;;;;;;;;;;;;5.84;59.99;96235.94;5104745;27;20297;-58
2024/02/23 23:50:02;;;;;;;;;;;;;;;5.73;60.23;96248.97;5108758;27;20064;-59
2024/02/23 23:52:50;;;;;;;;;;;;;;;5.71;60.69;96234.25;5097811;28;20313;-60
2024/02/23 23:55:38;;;;;;;;;;;;;;;5.72;60.35;96239.28;5107192;28;20009;-58
2024/02/23 23:58:26;;;;;;;;;;;;;;;5.82;60.24;96237.38;5105823;28;19924;-62
